sensor_id;sensor_type;location;lat;lon;timestamp;pressure;altitude;pressure_sealevel;temperature;humidity
11343;BME280;5726;42.160;24.746;2023-07-02T00:00:55;98718.63;;;27.10;82.28
11343;BME280;5726;42.160;24.746;2023-07-02T00:03:20;98722.66;;;27.02;82.80
11343;BME280;5726;42.160;24.746;2023-07-02T00:05:47;98729.47;;;26.95;82.68
11343;BME280;5726;42.160;24.746;2023-07-02T00:08:15;98727.97;;;26.87;83.52
11343;BME280;5726;42.160;24.746;2023-07-02T00:10:41;98722.59;;;27.09;82.66
11343;BME280;5726;42.160;24.746;2023-07-02T00:13:07;98726.41;;;26.89;83.18
11343;BME280;5726;42.160;24.746;2023-07-02T00:15:32;98730.09;;;27.05;82.22
11343;BME280;5726;42.160;24.746;2023-07-02T00:17:58;98725.28;;;26.83;82.98
11343;BME280;5726;42.160;24.746;2023-07-02T00:20:23;98721.25;;;26.61;84.91
11343;BME280;5726;42.160;24.746;2023-07-02T00:22:49;98723.63;;;26.59;85.20
11343;BME280;5726;42.160;24.746;2023-07-02T00:25:14;98722.88;;;26.55;85.28
11343;BME280;5726;42.160;24.746;2023-07-02T00:27:40;98719.50;;;26.45;86.10
11343;BME280;5726;42.160;24.746;2023-07-02T00:30:06;98730.56;;;26.71;85.04
11343;BME280;5726;42.160;24.746;2023-07-02T00:32:32;98734.09;;;26.71;84.69
11343;BME280;5726;42.160;24.746;2023-07-02T00:34:57;98736.19;;;26.60;84.26
11343;BME280;5726;42.160;24.746;2023-07-02T00:37:24;98730.28;;;26.29;85.80
11343;BME280;5726;42.160;24.746;2023-07-02T00:39:49;98737.00;;;25.84;88.69
11343;BME280;5726;42.160;24.746;2023-07-02T00:42:15;98743.44;;;25.67;90.99
11343;BME280;5726;42.160;24.746;2023-07-02T00:44:41;98739.53;;;25.68;90.78
11343;BME280;5726;42.160;24.746;2023-07-02T00:47:11;98737.97;;;25.67;90.99
11343;BME280;5726;42.160;24.746;2023-07-02T00:49:37;98731.19;;;25.79;90.10
11343;BME280;5726;42.160;24.746;2023-07-02T00:52:04;98725.50;;;25.96;88.92
11343;BME280;5726;42.160;24.746;2023-07-02T00:54:30;98729.72;;;26.07;87.94
11343;BME280;5726;42.160;24.746;2023-07-02T00:56:56;98719.66;;;25.94;87.94
11343;BME280;5726;42.160;24.746;2023-07-02T00:59:22;98720.75;;;26.00;88.06
11343;BME280;5726;42.160;24.746;2023-07-02T01:01:48;98717.25;;;25.96;87.99
11343;BME280;5726;42.160;24.746;2023-07-02T01:04:17;98709.53;;;25.84;88.82
11343;BME280;5726;42.160;24.746;2023-07-02T01:06:43;98711.81;;;25.93;87.14
11343;BME280;5726;42.160;24.746;2023-07-02T01:09:10;98711.94;;;26.15;85.64
11343;BME280;5726;42.160;24.746;2023-07-02T01:14:11;98716.75;;;26.08;85.87
11343;BME280;5726;42.160;24.746;2023-07-02T01:16:41;98715.69;;;25.98;86.11
11343;BME280;5726;42.160;24.746;2023-07-02T01:19:16;98709.88;;;25.90;86.49
11343;BME280;5726;42.160;24.746;2023-07-02T01:21:45;98696.56;;;25.88;85.82
11343;BME280;5726;42.160;24.746;2023-07-02T01:24:12;98712.59;;;25.93;84.95
11343;BME280;5726;42.160;24.746;2023-07-02T01:26:39;98709.22;;;25.75;86.49
11343;BME280;5726;42.160;24.746;2023-07-02T01:31:39;98698.34;;;25.61;87.29
11343;BME280;5726;42.160;24.746;2023-07-02T01:34:05;98709.66;;;25.27;88.75
11343;BME280;5726;42.160;24.746;2023-07-02T01:36:32;98715.78;;;24.84;92.89
11343;BME280;5726;42.160;24.746;2023-07-02T01:38:58;98714.34;;;24.62;94.50
11343;BME280;5726;42.160;24.746;2023-07-02T01:41:24;98706.94;;;24.55;95.51
11343;BME280;5726;42.160;24.746;2023-07-02T01:43:49;98698.53;;;24.87;93.72
11343;BME280;5726;42.160;24.746;2023-07-02T01:46:15;98696.13;;;24.99;92.00
11343;BME280;5726;42.160;24.746;2023-07-02T01:48:40;98701.59;;;24.96;92.10
11343;BME280;5726;42.160;24.746;2023-07-02T01:51:05;98692.16;;;25.07;91.84
11343;BME280;5726;42.160;24.746;2023-07-02T01:53:31;98698.72;;;25.20;90.29
11343;BME280;5726;42.160;24.746;2023-07-02T01:55:56;98706.09;;;25.30;89.43
11343;BME280;5726;42.160;24.746;2023-07-02T01:58:22;98692.78;;;25.28;89.25
11343;BME280;5726;42.160;24.746;2023-07-02T02:00:47;98682.56;;;25.29;89.10
11343;BME280;5726;42.160;24.746;2023-07-02T02:03:13;98677.41;;;25.38;88.43
11343;BME280;5726;42.160;24.746;2023-07-02T02:05:38;98684.28;;;25.56;86.18
11343;BME280;5726;42.160;24.746;2023-07-02T02:08:03;98690.63;;;25.49;87.21
11343;BME280;5726;42.160;24.746;2023-07-02T02:10:29;98692.50;;;25.56;87.57
11343;BME280;5726;42.160;24.746;2023-07-02T02:12:54;98694.09;;;25.57;85.96
11343;BME280;5726;42.160;24.746;2023-07-02T02:15:20;98688.56;;;25.60;85.76
11343;BME280;5726;42.160;24.746;2023-07-02T02:17:45;98685.63;;;25.38;86.16
11343;BME280;5726;42.160;24.746;2023-07-02T02:20:11;98685.63;;;25.38;86.54
11343;BME280;5726;42.160;24.746;2023-07-02T02:22:36;98684.28;;;25.56;85.50
11343;BME280;5726;42.160;24.746;2023-07-02T02:25:02;98685.44;;;25.58;85.01
11343;BME280;5726;42.160;24.746;2023-07-02T02:27:28;98682.22;;;25.70;84.45
11343;BME280;5726;42.160;24.746;2023-07-02T02:29:54;98683.69;;;25.78;83.89
11343;BME280;5726;42.160;24.746;2023-07-02T02:32:19;98690.09;;;25.65;83.96
11343;BME280;5726;42.160;24.746;2023-07-02T02:34:47;98695.81;;;25.84;83.64
11343;BME280;5726;42.160;24.746;2023-07-02T02:37:12;98709.75;;;25.60;84.39
11343;BME280;5726;42.160;24.746;2023-07-02T02:39:37;98700.28;;;25.71;83.59
11343;BME280;5726;42.160;24.746;2023-07-02T02:42:03;98705.66;;;25.78;83.58
11343;BME280;5726;42.160;24.746;2023-07-02T02:44:29;98701.09;;;25.61;83.83
11343;BME280;5726;42.160;24.746;2023-07-02T02:46:55;98704.78;;;25.88;82.21
11343;BME280;5726;42.160;24.746;2023-07-02T02:49:20;98711.72;;;26.03;81.27
11343;BME280;5726;42.160;24.746;2023-07-02T02:51:45;98707.28;;;26.12;79.86
11343;BME280;5726;42.160;24.746;2023-07-02T02:54:11;98714.44;;;26.03;80.13
11343;BME280;5726;42.160;24.746;2023-07-02T02:56:36;98716.88;;;25.54;83.73
11343;BME280;5726;42.160;24.746;2023-07-02T02:59:02;98721.28;;;25.45;84.38
11343;BME280;5726;42.160;24.746;2023-07-02T03:01:27;98731.13;;;25.39;84.81
11343;BME280;5726;42.160;24.746;2023-07-02T03:03:58;98737.47;;;25.29;86.11
11343;BME280;5726;42.160;24.746;2023-07-02T03:06:24;98754.03;;;25.15;86.99
11343;BME280;5726;42.160;24.746;2023-07-02T03:08:49;98752.44;;;25.21;87.08
11343;BME280;5726;42.160;24.746;2023-07-02T03:11:15;98750.56;;;25.07;87.89
11343;BME280;5726;42.160;24.746;2023-07-02T03:13:40;98760.38;;;24.98;88.74
11343;BME280;5726;42.160;24.746;2023-07-02T03:16:06;98755.53;;;24.45;92.52
11343;BME280;5726;42.160;24.746;2023-07-02T03:18:31;98749.94;;;24.69;92.07
11343;BME280;5726;42.160;24.746;2023-07-02T03:20:58;98753.34;;;24.90;90.16
11343;BME280;5726;42.160;24.746;2023-07-02T03:23:24;98763.13;;;24.98;89.76
11343;BME280;5726;42.160;24.746;2023-07-02T03:25:49;98768.25;;;25.00;88.91
11343;BME280;5726;42.160;24.746;2023-07-02T03:28:14;98767.03;;;25.04;87.94
11343;BME280;5726;42.160;24.746;2023-07-02T03:30:40;98767.56;;;24.68;91.23
11343;BME280;5726;42.160;24.746;2023-07-02T03:33:08;98768.88;;;24.36;93.86
11343;BME280;5726;42.160;24.746;2023-07-02T03:35:34;98776.72;;;24.20;93.47
11343;BME280;5726;42.160;24.746;2023-07-02T03:38:00;98770.09;;;24.03;94.42
11343;BME280;5726;42.160;24.746;2023-07-02T03:40:25;98781.06;;;23.76;96.35
11343;BME280;5726;42.160;24.746;2023-07-02T03:42:50;98770.50;;;23.60;98.47
11343;BME280;5726;42.160;24.746;2023-07-02T03:45:16;98767.78;;;23.67;97.23
11343;BME280;5726;42.160;24.746;2023-07-02T03:47:41;98770.47;;;23.43;99.24
11343;BME280;5726;42.160;24.746;2023-07-02T03:50:08;98772.41;;;23.22;100.00
11343;BME280;5726;42.160;24.746;2023-07-02T03:52:34;98772.03;;;23.23;100.00
11343;BME280;5726;42.160;24.746;2023-07-02T03:54:59;98769.69;;;23.25;100.00
11343;BME280;5726;42.160;24.746;2023-07-02T03:57:25;98775.56;;;23.45;99.50
11343;BME280;5726;42.160;24.746;2023-07-02T03:59:51;98771.28;;;23.71;96.91
11343;BME280;5726;42.160;24.746;2023-07-02T04:02:16;98767.78;;;23.81;95.39
11343;BME280;5726;42.160;24.746;2023-07-02T04:04:42;98770.53;;;23.64;96.65
11343;BME280;5726;42.160;24.746;2023-07-02T04:07:07;98777.16;;;23.87;95.29
11343;BME280;5726;42.160;24.746;2023-07-02T04:09:33;98772.47;;;24.02;93.80
11343;BME280;5726;42.160;24.746;2023-07-02T04:12:00;98775.16;;;24.33;92.17
11343;BME280;5726;42.160;24.746;2023-07-02T04:14:25;98775.91;;;24.44;89.58
11343;BME280;5726;42.160;24.746;2023-07-02T04:16:51;98769.72;;;23.98;93.00
11343;BME280;5726;42.160;24.746;2023-07-02T04:19:16;98774.03;;;23.54;97.63
11343;BME280;5726;42.160;24.746;2023-07-02T04:21:41;98773.22;;;23.43;98.83
11343;BME280;5726;42.160;24.746;2023-07-02T04:24:07;98781.88;;;23.76;97.22
11343;BME280;5726;42.160;24.746;2023-07-02T04:26:32;98786.13;;;24.12;93.04
11343;BME280;5726;42.160;24.746;2023-07-02T04:28:58;98785.75;;;23.89;94.98
11343;BME280;5726;42.160;24.746;2023-07-02T04:31:24;98783.41;;;23.77;96.27
11343;BME280;5726;42.160;24.746;2023-07-02T04:33:49;98789.69;;;23.92;95.80
11343;BME280;5726;42.160;24.746;2023-07-02T04:36:15;98792.81;;;23.97;95.90
11343;BME280;5726;42.160;24.746;2023-07-02T04:38:40;98789.59;;;24.51;92.96
11343;BME280;5726;42.160;24.746;2023-07-02T04:41:06;98785.56;;;24.72;90.18
11343;BME280;5726;42.160;24.746;2023-07-02T04:43:32;98790.03;;;24.39;92.61
11343;BME280;5726;42.160;24.746;2023-07-02T04:45:58;98785.69;;;24.45;92.34
11343;BME280;5726;42.160;24.746;2023-07-02T04:48:23;98792.28;;;24.57;91.98
11343;BME280;5726;42.160;24.746;2023-07-02T04:50:49;98794.41;;;25.11;90.31
11343;BME280;5726;42.160;24.746;2023-07-02T04:53:15;98802.78;;;25.51;86.14
11343;BME280;5726;42.160;24.746;2023-07-02T04:55:41;98811.25;;;25.77;83.48
11343;BME280;5726;42.160;24.746;2023-07-02T04:58:07;98804.84;;;25.40;84.97
11343;BME280;5726;42.160;24.746;2023-07-02T05:00:32;98815.53;;;25.21;86.99
11343;BME280;5726;42.160;24.746;2023-07-02T05:02:58;98821.50;;;25.05;88.87
11343;BME280;5726;42.160;24.746;2023-07-02T05:05:23;98822.13;;;25.34;88.90
11343;BME280;5726;42.160;24.746;2023-07-02T05:07:48;98820.34;;;25.60;85.69
11343;BME280;5726;42.160;24.746;2023-07-02T05:10:14;98814.78;;;25.78;87.71
11343;BME280;5726;42.160;24.746;2023-07-02T05:12:40;98803.75;;;25.81;85.81
11343;BME280;5726;42.160;24.746;2023-07-02T05:15:05;98810.63;;;25.52;88.38
11343;BME280;5726;42.160;24.746;2023-07-02T05:17:31;98808.72;;;25.43;90.58
11343;BME280;5726;42.160;24.746;2023-07-02T05:20:00;98817.94;;;25.76;88.23
11343;BME280;5726;42.160;24.746;2023-07-02T05:22:26;98826.16;;;25.76;88.66
11343;BME280;5726;42.160;24.746;2023-07-02T05:24:51;98835.13;;;25.84;89.02
11343;BME280;5726;42.160;24.746;2023-07-02T05:27:17;98847.69;;;25.81;89.66
11343;BME280;5726;42.160;24.746;2023-07-02T05:29:43;98859.03;;;25.87;88.88
11343;BME280;5726;42.160;24.746;2023-07-02T05:32:08;98855.03;;;25.98;89.15
11343;BME280;5726;42.160;24.746;2023-07-02T05:34:34;98863.03;;;25.75;89.56
11343;BME280;5726;42.160;24.746;2023-07-02T05:36:59;98860.81;;;25.56;88.67
11343;BME280;5726;42.160;24.746;2023-07-02T05:39:25;98857.22;;;25.66;88.79
11343;BME280;5726;42.160;24.746;2023-07-02T05:41:50;98855.91;;;25.88;86.87
11343;BME280;5726;42.160;24.746;2023-07-02T05:44:16;98879.34;;;25.39;84.38
11343;BME280;5726;42.160;24.746;2023-07-02T05:46:42;98873.94;;;25.25;85.64
11343;BME280;5726;42.160;24.746;2023-07-02T05:49:07;98874.75;;;25.22;83.28
11343;BME280;5726;42.160;24.746;2023-07-02T05:51:32;98879.13;;;25.02;84.97
11343;BME280;5726;42.160;24.746;2023-07-02T05:53:58;98863.47;;;24.92;86.14
11343;BME280;5726;42.160;24.746;2023-07-02T05:56:23;98861.06;;;25.08;85.98
11343;BME280;5726;42.160;24.746;2023-07-02T05:58:49;98851.94;;;25.32;85.43
11343;BME280;5726;42.160;24.746;2023-07-02T06:01:15;98845.34;;;25.19;86.99
11343;BME280;5726;42.160;24.746;2023-07-02T06:03:41;98856.75;;;25.10;87.43
11343;BME280;5726;42.160;24.746;2023-07-02T06:06:08;98862.16;;;25.28;87.00
11343;BME280;5726;42.160;24.746;2023-07-02T06:08:34;98876.94;;;25.44;87.03
11343;BME280;5726;42.160;24.746;2023-07-02T06:10:59;98873.81;;;25.46;86.27
11343;BME280;5726;42.160;24.746;2023-07-02T06:13:25;98871.34;;;25.65;85.79
11343;BME280;5726;42.160;24.746;2023-07-02T06:15:50;98855.75;;;25.48;86.80
11343;BME280;5726;42.160;24.746;2023-07-02T06:18:16;98855.03;;;25.41;88.57
11343;BME280;5726;42.160;24.746;2023-07-02T06:20:43;98839.53;;;25.71;87.61
11343;BME280;5726;42.160;24.746;2023-07-02T06:23:08;98848.00;;;25.33;87.36
11343;BME280;5726;42.160;24.746;2023-07-02T06:25:34;98847.97;;;25.40;88.61
11343;BME280;5726;42.160;24.746;2023-07-02T06:28:00;98848.63;;;25.57;88.00
11343;BME280;5726;42.160;24.746;2023-07-02T06:30:25;98846.34;;;26.03;84.50
11343;BME280;5726;42.160;24.746;2023-07-02T06:32:51;98843.28;;;26.41;81.91
11343;BME280;5726;42.160;24.746;2023-07-02T06:35:17;98833.41;;;26.44;80.77
11343;BME280;5726;42.160;24.746;2023-07-02T06:37:43;98833.47;;;26.73;79.56
11343;BME280;5726;42.160;24.746;2023-07-02T06:40:09;98824.19;;;26.97;77.93
11343;BME280;5726;42.160;24.746;2023-07-02T06:42:35;98830.63;;;27.17;76.59
11343;BME280;5726;42.160;24.746;2023-07-02T06:45:03;98833.72;;;27.19;76.44
11343;BME280;5726;42.160;24.746;2023-07-02T06:47:29;98843.16;;;27.18;77.35
11343;BME280;5726;42.160;24.746;2023-07-02T06:49:55;98841.91;;;27.55;76.51
11343;BME280;5726;42.160;24.746;2023-07-02T06:52:20;98835.81;;;27.90;76.85
11343;BME280;5726;42.160;24.746;2023-07-02T06:54:46;98833.06;;;27.90;76.58
11343;BME280;5726;42.160;24.746;2023-07-02T06:57:14;98823.56;;;27.68;75.47
11343;BME280;5726;42.160;24.746;2023-07-02T06:59:40;98828.31;;;27.68;77.01
11343;BME280;5726;42.160;24.746;2023-07-02T07:02:06;98832.41;;;27.83;76.24
11343;BME280;5726;42.160;24.746;2023-07-02T07:04:31;98832.47;;;27.53;77.31
11343;BME280;5726;42.160;24.746;2023-07-02T07:06:57;98832.16;;;27.18;80.70
11343;BME280;5726;42.160;24.746;2023-07-02T07:09:22;98831.50;;;27.37;80.03
11343;BME280;5726;42.160;24.746;2023-07-02T07:11:48;98829.53;;;27.37;78.78
11343;BME280;5726;42.160;24.746;2023-07-02T07:14:13;98830.41;;;27.01;81.21
11343;BME280;5726;42.160;24.746;2023-07-02T07:16:39;98826.94;;;26.97;80.68
11343;BME280;5726;42.160;24.746;2023-07-02T07:19:05;98829.53;;;27.07;80.05
11343;BME280;5726;42.160;24.746;2023-07-02T07:21:30;98836.81;;;27.24;79.00
11343;BME280;5726;42.160;24.746;2023-07-02T07:23:56;98831.97;;;27.61;77.88
11343;BME280;5726;42.160;24.746;2023-07-02T07:26:21;98835.81;;;27.67;75.96
11343;BME280;5726;42.160;24.746;2023-07-02T07:28:47;98832.59;;;27.43;75.76
11343;BME280;5726;42.160;24.746;2023-07-02T07:31:12;98835.00;;;27.41;75.06
11343;BME280;5726;42.160;24.746;2023-07-02T07:33:38;98835.44;;;27.36;75.60
11343;BME280;5726;42.160;24.746;2023-07-02T07:36:04;98830.34;;;27.64;72.34
11343;BME280;5726;42.160;24.746;2023-07-02T07:38:29;98824.53;;;27.58;75.09
11343;BME280;5726;42.160;24.746;2023-07-02T07:40:55;98826.31;;;28.17;73.40
11343;BME280;5726;42.160;24.746;2023-07-02T07:43:20;98825.91;;;28.42;70.86
11343;BME280;5726;42.160;24.746;2023-07-02T07:45:46;98825.44;;;28.85;70.00
11343;BME280;5726;42.160;24.746;2023-07-02T07:48:11;98822.25;;;29.25;66.29
11343;BME280;5726;42.160;24.746;2023-07-02T07:50:37;98815.47;;;29.45;65.48
11343;BME280;5726;42.160;24.746;2023-07-02T07:53:02;98809.56;;;29.28;64.77
11343;BME280;5726;42.160;24.746;2023-07-02T07:55:28;98807.38;;;29.70;62.72
11343;BME280;5726;42.160;24.746;2023-07-02T07:57:53;98807.38;;;29.54;61.13
11343;BME280;5726;42.160;24.746;2023-07-02T08:00:19;98812.91;;;29.70;61.77
11343;BME280;5726;42.160;24.746;2023-07-02T08:02:45;98803.72;;;29.42;62.66
11343;BME280;5726;42.160;24.746;2023-07-02T08:05:12;98808.53;;;28.83;63.57
11343;BME280;5726;42.160;24.746;2023-07-02T08:07:38;98796.63;;;28.47;67.06
11343;BME280;5726;42.160;24.746;2023-07-02T08:10:05;98794.56;;;28.51;66.12
11343;BME280;5726;42.160;24.746;2023-07-02T08:12:33;98795.47;;;28.45;69.14
11343;BME280;5726;42.160;24.746;2023-07-02T08:14:58;98797.63;;;28.15;70.35
11343;BME280;5726;42.160;24.746;2023-07-02T08:17:24;98800.72;;;28.59;67.64
11343;BME280;5726;42.160;24.746;2023-07-02T08:19:49;98799.69;;;28.72;66.61
11343;BME280;5726;42.160;24.746;2023-07-02T08:22:15;98804.09;;;28.89;66.55
11343;BME280;5726;42.160;24.746;2023-07-02T08:24:40;98801.78;;;29.03;66.21
11343;BME280;5726;42.160;24.746;2023-07-02T08:27:06;98798.66;;;29.21;66.46
11343;BME280;5726;42.160;24.746;2023-07-02T08:29:31;98804.25;;;29.37;65.81
11343;BME280;5726;42.160;24.746;2023-07-02T08:31:57;98798.75;;;29.68;66.05
11343;BME280;5726;42.160;24.746;2023-07-02T08:34:22;98794.78;;;30.01;63.69
11343;BME280;5726;42.160;24.746;2023-07-02T08:36:48;98799.94;;;30.15;62.18
11343;BME280;5726;42.160;24.746;2023-07-02T08:39:15;98784.72;;;30.39;61.66
11343;BME280;5726;42.160;24.746;2023-07-02T08:41:47;98789.38;;;30.41;59.91
11343;BME280;5726;42.160;24.746;2023-07-02T08:44:13;98793.97;;;30.16;61.00
11343;BME280;5726;42.160;24.746;2023-07-02T08:46:40;98795.22;;;29.99;62.26
11343;BME280;5726;42.160;24.746;2023-07-02T08:49:06;98793.38;;;30.09;62.75
11343;BME280;5726;42.160;24.746;2023-07-02T08:51:32;98794.69;;;30.20;62.33
11343;BME280;5726;42.160;24.746;2023-07-02T08:53:57;98797.88;;;30.19;62.23
11343;BME280;5726;42.160;24.746;2023-07-02T08:56:23;98779.22;;;30.07;62.22
11343;BME280;5726;42.160;24.746;2023-07-02T08:58:49;98790.34;;;30.19;62.22
11343;BME280;5726;42.160;24.746;2023-07-02T09:01:14;98801.34;;;29.91;63.18
11343;BME280;5726;42.160;24.746;2023-07-02T09:03:40;98794.78;;;29.69;63.84
11343;BME280;5726;42.160;24.746;2023-07-02T09:06:10;98799.94;;;29.67;64.52
11343;BME280;5726;42.160;24.746;2023-07-02T09:08:37;98797.56;;;30.01;62.99
11343;BME280;5726;42.160;24.746;2023-07-02T09:11:20;98795.31;;;29.96;62.82
11343;BME280;5726;42.160;24.746;2023-07-02T09:13:48;98794.34;;;30.18;60.95
11343;BME280;5726;42.160;24.746;2023-07-02T09:16:24;98787.38;;;29.98;61.09
11343;BME280;5726;42.160;24.746;2023-07-02T09:18:56;98793.03;;;29.59;60.54
11343;BME280;5726;42.160;24.746;2023-07-02T09:21:22;98781.34;;;29.87;60.22
11343;BME280;5726;42.160;24.746;2023-07-02T09:23:48;98772.50;;;29.92;58.51
11343;BME280;5726;42.160;24.746;2023-07-02T09:26:20;98782.59;;;29.67;60.37
11343;BME280;5726;42.160;24.746;2023-07-02T09:28:46;98780.09;;;29.72;59.00
11343;BME280;5726;42.160;24.746;2023-07-02T09:31:11;98776.47;;;29.59;57.30
11343;BME280;5726;42.160;24.746;2023-07-02T09:33:36;98773.00;;;29.40;57.86
11343;BME280;5726;42.160;24.746;2023-07-02T09:36:02;98771.88;;;29.69;57.61
11343;BME280;5726;42.160;24.746;2023-07-02T09:38:28;98772.91;;;29.43;58.09
11343;BME280;5726;42.160;24.746;2023-07-02T09:40:54;98780.25;;;29.34;59.50
11343;BME280;5726;42.160;24.746;2023-07-02T09:43:21;98783.50;;;29.29;59.12
11343;BME280;5726;42.160;24.746;2023-07-02T09:45:48;98781.59;;;29.06;59.89
11343;BME280;5726;42.160;24.746;2023-07-02T09:48:16;98777.94;;;29.13;59.10
11343;BME280;5726;42.160;24.746;2023-07-02T09:50:47;98787.47;;;29.28;60.16
11343;BME280;5726;42.160;24.746;2023-07-02T09:53:12;98777.91;;;29.32;59.70
11343;BME280;5726;42.160;24.746;2023-07-02T09:55:39;98788.63;;;29.46;59.18
11343;BME280;5726;42.160;24.746;2023-07-02T09:58:05;98779.50;;;29.81;57.78
11343;BME280;5726;42.160;24.746;2023-07-02T10:00:31;98783.91;;;29.78;58.29
11343;BME280;5726;42.160;24.746;2023-07-02T10:02:56;98785.69;;;29.69;58.17
11343;BME280;5726;42.160;24.746;2023-07-02T10:05:29;98783.19;;;29.74;57.75
11343;BME280;5726;42.160;24.746;2023-07-02T10:08:11;98783.28;;;29.71;57.46
11343;BME280;5726;42.160;24.746;2023-07-02T10:10:38;98784.59;;;29.66;58.02
11343;BME280;5726;42.160;24.746;2023-07-02T10:13:03;98779.88;;;29.32;59.07
11343;BME280;5726;42.160;24.746;2023-07-02T10:15:29;98777.09;;;29.32;60.13
11343;BME280;5726;42.160;24.746;2023-07-02T10:17:57;98785.75;;;29.34;61.03
11343;BME280;5726;42.160;24.746;2023-07-02T10:20:37;98791.47;;;29.42;62.36
11343;BME280;5726;42.160;24.746;2023-07-02T10:23:09;98791.28;;;29.34;63.88
11343;BME280;5726;42.160;24.746;2023-07-02T10:25:37;98790.25;;;29.43;64.49
11343;BME280;5726;42.160;24.746;2023-07-02T10:28:20;98791.97;;;29.38;66.35
11343;BME280;5726;42.160;24.746;2023-07-02T10:30:52;98799.72;;;29.27;67.35
11343;BME280;5726;42.160;24.746;2023-07-02T10:33:19;98803.84;;;29.19;66.69
11343;BME280;5726;42.160;24.746;2023-07-02T10:35:47;98802.50;;;28.88;66.94
11343;BME280;5726;42.160;24.746;2023-07-02T10:38:19;98790.00;;;28.84;66.44
11343;BME280;5726;42.160;24.746;2023-07-02T10:40:45;98774.50;;;28.70;68.20
11343;BME280;5726;42.160;24.746;2023-07-02T10:43:11;98777.75;;;28.65;68.26
11343;BME280;5726;42.160;24.746;2023-07-02T10:45:37;98778.81;;;28.71;69.17
11343;BME280;5726;42.160;24.746;2023-07-02T10:48:03;98773.31;;;28.48;69.64
11343;BME280;5726;42.160;24.746;2023-07-02T10:50:30;98777.16;;;28.54;69.91
11343;BME280;5726;42.160;24.746;2023-07-02T10:52:57;98784.03;;;28.46;70.76
11343;BME280;5726;42.160;24.746;2023-07-02T10:55:24;98781.13;;;28.53;70.92
11343;BME280;5726;42.160;24.746;2023-07-02T10:57:50;98795.78;;;28.28;72.23
11343;BME280;5726;42.160;24.746;2023-07-02T11:00:26;98797.38;;;28.29;73.71
11343;BME280;5726;42.160;24.746;2023-07-02T11:02:52;98808.09;;;28.00;76.88
11343;BME280;5726;42.160;24.746;2023-07-02T11:05:17;98803.25;;;27.85;79.28
11343;BME280;5726;42.160;24.746;2023-07-02T11:07:43;98790.31;;;27.82;80.41
11343;BME280;5726;42.160;24.746;2023-07-02T11:10:10;98784.38;;;27.05;86.51
11343;BME280;5726;42.160;24.746;2023-07-02T11:12:36;98774.28;;;26.95;89.99
11343;BME280;5726;42.160;24.746;2023-07-02T11:15:15;98777.31;;;27.04;91.62
11343;BME280;5726;42.160;24.746;2023-07-02T11:17:43;98779.34;;;26.34;94.91
11343;BME280;5726;42.160;24.746;2023-07-02T11:20:09;98780.94;;;26.64;96.35
11343;BME280;5726;42.160;24.746;2023-07-02T11:22:36;98776.09;;;26.75;96.23
11343;BME280;5726;42.160;24.746;2023-07-02T11:25:19;98778.03;;;26.78;95.00
11343;BME280;5726;42.160;24.746;2023-07-02T11:27:45;98786.25;;;26.45;98.29
11343;BME280;5726;42.160;24.746;2023-07-02T11:30:11;98779.84;;;26.18;97.32
11343;BME280;5726;42.160;24.746;2023-07-02T11:32:47;98781.28;;;26.37;95.08
11343;BME280;5726;42.160;24.746;2023-07-02T11:35:14;98774.53;;;26.01;97.84
11343;BME280;5726;42.160;24.746;2023-07-02T11:37:41;98770.53;;;26.09;94.96
11343;BME280;5726;42.160;24.746;2023-07-02T11:40:07;98766.59;;;26.10;94.88
11343;BME280;5726;42.160;24.746;2023-07-02T11:42:32;98778.31;;;26.17;92.65
11343;BME280;5726;42.160;24.746;2023-07-02T11:44:58;98770.47;;;26.16;91.39
11343;BME280;5726;42.160;24.746;2023-07-02T11:47:23;98774.94;;;26.40;89.99
11343;BME280;5726;42.160;24.746;2023-07-02T11:49:50;98769.88;;;26.35;87.80
11343;BME280;5726;42.160;24.746;2023-07-02T11:52:15;98782.75;;;26.45;86.86
11343;BME280;5726;42.160;24.746;2023-07-02T11:54:41;98787.63;;;26.27;89.80
11343;BME280;5726;42.160;24.746;2023-07-02T11:57:06;98777.19;;;26.08;92.89
11343;BME280;5726;42.160;24.746;2023-07-02T11:59:32;98768.00;;;26.28;93.30
11343;BME280;5726;42.160;24.746;2023-07-02T12:01:57;98765.19;;;26.35;91.17
11343;BME280;5726;42.160;24.746;2023-07-02T12:04:30;98756.72;;;26.16;93.62
11343;BME280;5726;42.160;24.746;2023-07-02T12:06:56;98764.66;;;26.44;94.34
11343;BME280;5726;42.160;24.746;2023-07-02T12:09:21;98758.72;;;26.12;92.28
11343;BME280;5726;42.160;24.746;2023-07-02T12:11:47;98760.41;;;26.39;92.30
11343;BME280;5726;42.160;24.746;2023-07-02T12:14:12;98753.69;;;26.44;93.26
11343;BME280;5726;42.160;24.746;2023-07-02T12:16:38;98744.13;;;26.55;94.27
11343;BME280;5726;42.160;24.746;2023-07-02T12:19:03;98742.84;;;26.30;92.07
11343;BME280;5726;42.160;24.746;2023-07-02T12:21:29;98746.25;;;26.41;88.12
11343;BME280;5726;42.160;24.746;2023-07-02T12:23:54;98733.41;;;26.31;95.36
11343;BME280;5726;42.160;24.746;2023-07-02T12:26:19;98732.38;;;26.51;95.05
11343;BME280;5726;42.160;24.746;2023-07-02T12:28:45;98733.63;;;26.76;92.92
11343;BME280;5726;42.160;24.746;2023-07-02T12:31:10;98728.56;;;26.42;90.95
11343;BME280;5726;42.160;24.746;2023-07-02T12:33:38;98731.38;;;26.68;92.61
11343;BME280;5726;42.160;24.746;2023-07-02T12:36:03;98719.50;;;27.04;87.85
11343;BME280;5726;42.160;24.746;2023-07-02T12:38:29;98725.03;;;27.27;85.50
11343;BME280;5726;42.160;24.746;2023-07-02T12:40:54;98726.38;;;27.42;77.51
11343;BME280;5726;42.160;24.746;2023-07-02T12:43:20;98709.84;;;27.42;78.98
11343;BME280;5726;42.160;24.746;2023-07-02T12:45:45;98716.44;;;27.25;78.02
11343;BME280;5726;42.160;24.746;2023-07-02T12:48:12;98716.50;;;27.21;82.58
11343;BME280;5726;42.160;24.746;2023-07-02T12:50:37;98720.84;;;26.93;82.16
11343;BME280;5726;42.160;24.746;2023-07-02T12:53:03;98710.63;;;26.63;86.88
11343;BME280;5726;42.160;24.746;2023-07-02T12:55:29;98712.91;;;26.68;85.80
11343;BME280;5726;42.160;24.746;2023-07-02T12:57:55;98715.78;;;26.58;89.85
11343;BME280;5726;42.160;24.746;2023-07-02T13:00:20;98716.75;;;26.45;89.39